Time,TemperatureF,DewpointF,PressureIn,WindDirection,WindDirectionDegrees,WindSpeedMPH,WindSpeedGustMPH,Humidity,HourlyPrecipIn,Conditions,Clouds,dailyrainin,SoftwareType,DateUTC
2013-01-26 00:00:00,38.2,27.8,30.14,NNE,14,0.0,0.0,66,0.00,,,0.00,Wunderground v.1.15,2013-01-26 05:00:00,
2013-01-26 00:10:00,37.9,27.5,30.13,North,5,0.0,0.0,66,0.00,,,0.00,Wunderground v.1.15,2013-01-26 05:10:00,
2013-01-26 00:15:00,37.9,27.5,30.13,NNE,12,0.0,0.0,66,0.00,,,0.00,Wunderground v.1.15,2013-01-26 05:15:00,
2013-01-26 00:20:00,37.8,27.5,30.14,NE,34,0.0,0.0,66,0.00,,,0.00,Wunderground v.1.15,2013-01-26 05:20:00,
2013-01-26 00:25:00,37.8,27.5,30.14,NNE,30,0.0,0.0,66,0.00,,,0.00,Wunderground v.1.15,2013-01-26 05:25:00,
2013-01-26 00:30:00,37.8,27.1,30.13,NNE,15,0.0,0.0,65,0.00,,,0.00,Wunderground v.1.15,2013-01-26 05:30:00,
2013-01-26 00:40:00,37.9,27.9,30.13,NE,40,0.0,0.0,67,0.00,,,0.00,Wunderground v.1.15,2013-01-26 05:40:00,
2013-01-26 00:45:00,37.9,27.5,30.13,NNE,19,0.0,0.0,66,0.00,,,0.00,Wunderground v.1.15,2013-01-26 05:45:00,
2013-01-26 00:50:00,37.9,27.5,30.13,NNE,28,0.0,0.0,66,0.00,,,0.00,Wunderground v.1.15,2013-01-26 05:50:00,
2013-01-26 00:55:00,37.9,27.9,30.13,NNE,28,0.0,0.0,67,0.00,,,0.00,Wunderground v.1.15,2013-01-26 05:55:00,
2013-01-26 01:05:00,37.9,27.9,30.13,NW,307,0.0,0.0,67,0.00,,,0.00,Wunderground v.1.15,2013-01-26 06:05:00,
2013-01-26 01:15:00,37.9,27.9,30.13,NW,307,0.0,0.0,67,0.00,,,0.00,Wunderground v.1.15,2013-01-26 06:15:00,
2013-01-26 01:20:00,37.9,27.9,30.13,NW,307,0.0,0.0,67,0.00,,,0.00,Wunderground v.1.15,2013-01-26 06:20:00,
2013-01-26 01:30:00,37.9,28.3,30.13,NNW,348,0.0,0.0,68,0.00,,,0.00,Wunderground v.1.15,2013-01-26 06:30:00,
2013-01-26 01:40:00,37.9,28.3,30.13,NNW,348,0.0,0.0,68,0.00,,,0.00,Wunderground v.1.15,2013-01-26 06:40:00,
2013-01-26 01:50:00,37.8,28.2,30.13,North,351,0.0,0.0,68,0.00,,,0.00,Wunderground v.1.15,2013-01-26 06:50:00,
2013-01-26 02:00:00,37.6,28.3,30.12,North,9,0.0,0.0,69,0.00,,,0.00,Wunderground v.1.15,2013-01-26 07:00:00,
2013-01-26 02:10:00,37.5,28.6,30.12,North,11,0.0,0.0,70,0.00,,,0.00,Wunderground v.1.15,2013-01-26 07:10:00,
2013-01-26 02:15:00,37.4,28.5,30.12,NW,307,0.0,0.0,70,0.00,,,0.00,Wunderground v.1.15,2013-01-26 07:15:00,
2013-01-26 02:25:00,37.3,28.4,30.12,NW,320,0.0,0.0,70,0.00,,,0.00,Wunderground v.1.15,2013-01-26 07:25:00,
2013-01-26 02:30:00,37.4,28.9,30.12,NW,317,0.0,0.0,71,0.00,,,0.00,Wunderground v.1.15,2013-01-26 07:30:00,
2013-01-26 02:40:00,37.3,28.4,30.11,NNE,12,0.0,0.0,70,0.00,,,0.00,Wunderground v.1.15,2013-01-26 07:40:00,
2013-01-26 02:50:00,37.3,28.8,30.11,NNE,12,0.0,0.0,71,0.00,,,0.00,Wunderground v.1.15,2013-01-26 07:50:00,
2013-01-26 03:00:00,37.4,28.9,30.12,NNE,12,0.0,0.0,71,0.00,,,0.00,Wunderground v.1.15,2013-01-26 08:00:00,
2013-01-26 03:10:00,37.4,28.9,30.12,NNE,13,0.0,0.0,71,0.00,,,0.00,Wunderground v.1.15,2013-01-26 08:10:00,
2013-01-26 03:20:00,37.5,28.2,30.12,NNW,328,0.0,0.0,69,0.00,,,0.00,Wunderground v.1.15,2013-01-26 08:20:00,
2013-01-26 03:25:00,37.5,28.2,30.11,NW,315,1.0,1.0,69,0.00,,,0.00,Wunderground v.1.15,2013-01-26 08:25:00,
2013-01-26 03:35:00,37.7,28.8,30.11,NW,315,0.0,0.0,70,0.00,,,0.00,Wunderground v.1.15,2013-01-26 08:35:00,
2013-01-26 03:40:00,37.7,28.4,30.11,NW,313,0.0,0.0,69,0.00,,,0.00,Wunderground v.1.15,2013-01-26 08:40:00,
2013-01-26 03:50:00,37.8,28.5,30.11,NW,320,0.0,0.0,69,0.00,,,0.00,Wunderground v.1.15,2013-01-26 08:50:00,
2013-01-26 03:55:00,37.9,28.6,30.11,NW,320,0.0,0.0,69,0.00,,,0.00,Wunderground v.1.15,2013-01-26 08:55:00,
2013-01-26 04:05:00,37.9,28.6,30.11,NW,320,0.0,0.0,69,0.00,,,0.00,Wunderground v.1.15,2013-01-26 09:05:00,
2013-01-26 04:10:00,37.9,28.3,30.11,NW,320,0.0,0.0,68,0.00,,,0.00,Wunderground v.1.15,2013-01-26 09:10:00,
2013-01-26 04:15:00,37.9,28.6,30.10,NW,320,0.0,0.0,69,0.00,,,0.00,Wunderground v.1.15,2013-01-26 09:15:00,
2013-01-26 04:25:00,37.9,28.6,30.10,NW,320,0.0,0.0,69,0.00,,,0.00,Wunderground v.1.15,2013-01-26 09:25:00,
2013-01-26 04:35:00,37.8,28.2,30.11,NW,320,0.0,0.0,68,0.00,,,0.00,Wunderground v.1.15,2013-01-26 09:35:00,
2013-01-26 04:45:00,37.7,28.4,30.11,NW,320,0.0,0.0,69,0.00,,,0.00,Wunderground v.1.15,2013-01-26 09:45:00,
2013-01-26 04:55:00,37.8,29.2,30.11,NW,320,0.0,0.0,71,0.00,,,0.00,Wunderground v.1.15,2013-01-26 09:55:00,
2013-01-26 05:05:00,37.9,29.3,30.11,NW,320,0.0,0.0,71,0.00,,,0.00,Wunderground v.1.15,2013-01-26 10:05:00,
2013-01-26 05:10:00,37.9,29.3,30.11,NW,320,0.0,0.0,71,0.00,,,0.00,Wunderground v.1.15,2013-01-26 10:10:00,
2013-01-26 05:15:00,37.8,28.9,30.11,NW,320,0.0,0.0,70,0.00,,,0.00,Wunderground v.1.15,2013-01-26 10:15:00,
2013-01-26 05:25:00,37.8,29.2,30.12,NW,320,0.0,0.0,71,0.00,,,0.00,Wunderground v.1.15,2013-01-26 10:25:00,
2013-01-26 05:35:00,37.6,29.4,30.12,NW,320,0.0,0.0,72,0.00,,,0.00,Wunderground v.1.15,2013-01-26 10:35:00,
2013-01-26 05:45:00,37.3,29.4,30.12,NW,320,0.0,0.0,73,0.00,,,0.00,Wunderground v.1.15,2013-01-26 10:45:00,
2013-01-26 05:50:00,37.2,29.7,30.13,NW,320,0.0,0.0,74,0.00,,,0.00,Wunderground v.1.15,2013-01-26 10:50:00,
2013-01-26 06:00:00,37.1,29.6,30.14,NW,320,0.0,0.0,74,0.00,,,0.00,Wunderground v.1.15,2013-01-26 11:00:00,
2013-01-26 06:10:00,36.6,29.4,30.13,NE,55,0.0,0.0,75,0.00,,,0.00,Wunderground v.1.15,2013-01-26 11:10:00,
2013-01-26 06:20:00,36.6,29.4,30.14,NE,55,0.0,0.0,75,0.00,,,0.00,Wunderground v.1.15,2013-01-26 11:20:00,
2013-01-26 06:25:00,36.5,29.3,30.13,NE,36,0.0,0.0,75,0.00,,,0.00,Wunderground v.1.15,2013-01-26 11:25:00,
2013-01-26 06:35:00,36.3,29.5,30.13,NE,38,0.0,0.0,76,0.00,,,0.00,Wunderground v.1.15,2013-01-26 11:35:00,
2013-01-26 06:45:00,36.2,29.4,30.14,NE,38,0.0,0.0,76,0.00,,,0.00,Wunderground v.1.15,2013-01-26 11:45:00,
2013-01-26 06:55:00,36.2,29.4,30.15,NE,38,0.0,0.0,76,0.00,,,0.00,Wunderground v.1.15,2013-01-26 11:55:00,
2013-01-26 07:05:00,36.0,29.2,30.15,NE,38,0.0,0.0,76,0.00,,,0.00,Wunderground v.1.15,2013-01-26 12:05:00,
2013-01-26 07:15:00,36.0,29.2,30.15,NE,38,0.0,0.0,76,0.00,,,0.00,Wunderground v.1.15,2013-01-26 12:15:00,
2013-01-26 07:25:00,35.9,29.1,30.15,NE,38,0.0,0.0,76,0.00,,,0.00,Wunderground v.1.15,2013-01-26 12:25:00,
2013-01-26 07:35:00,-999.9,-99.9,30.16,North,32767,-999.0,0.0,255,-99.99,,,0.00,Wunderground v.1.15,2013-01-26 12:35:00,
2013-01-26 07:45:00,-999.9,-99.9,30.16,North,32767,-999.0,0.0,255,-99.99,,,0.00,Wunderground v.1.15,2013-01-26 12:45:00,
2013-01-26 07:50:00,-999.9,-99.9,30.16,North,32767,-999.0,0.0,255,-99.99,,,0.00,Wunderground v.1.15,2013-01-26 12:50:00,
2013-01-26 07:55:00,-999.9,-99.9,30.16,North,32767,-999.0,0.0,255,-99.99,,,0.00,Wunderground v.1.15,2013-01-26 12:55:00,
2013-01-26 08:05:00,37.6,30.4,30.17,NE,38,0.0,0.0,75,0.00,,,0.00,Wunderground v.1.15,2013-01-26 13:05:00,
2013-01-26 08:15:00,38.6,30.7,30.16,NE,38,0.0,0.0,73,0.00,,,0.00,Wunderground v.1.15,2013-01-26 13:15:00,
2013-01-26 08:25:00,39.1,30.8,30.17,NE,38,0.0,0.0,72,0.00,,,0.00,Wunderground v.1.15,2013-01-26 13:25:00,
2013-01-26 08:35:00,39.2,29.9,30.18,NW,315,0.0,0.0,69,0.00,,,0.00,Wunderground v.1.15,2013-01-26 13:35:00,
2013-01-26 08:40:00,39.5,29.8,30.17,NW,315,0.0,0.0,68,0.00,,,0.00,Wunderground v.1.15,2013-01-26 13:40:00,
2013-01-26 08:45:00,39.7,30.4,30.17,NW,315,0.0,0.0,69,0.00,,,0.00,Wunderground v.1.15,2013-01-26 13:45:00,
2013-01-26 08:55:00,41.1,31.3,30.17,NNE,26,0.0,0.0,68,0.00,,,0.00,Wunderground v.1.15,2013-01-26 13:55:00,
2013-01-26 09:05:00,41.4,31.3,30.18,NE,41,0.0,0.0,67,0.00,,,0.00,Wunderground v.1.15,2013-01-26 14:05:00,
2013-01-26 09:15:00,41.5,31.7,30.18,NNE,24,0.0,0.0,68,0.00,,,0.00,Wunderground v.1.15,2013-01-26 14:15:00,
2013-01-26 09:25:00,41.8,31.6,30.19,NNW,336,0.0,2.0,67,0.00,,,0.00,Wunderground v.1.15,2013-01-26 14:25:00,
2013-01-26 09:30:00,42.4,32.2,30.19,NNE,28,1.0,1.0,67,0.00,,,0.00,Wunderground v.1.15,2013-01-26 14:30:00,
2013-01-26 09:40:00,43.6,33.0,30.19,North,350,0.0,0.0,66,0.00,,,0.00,Wunderground v.1.15,2013-01-26 14:40:00,
2013-01-26 09:50:00,44.1,33.5,30.20,NNW,328,0.0,0.0,66,0.00,,,0.00,Wunderground v.1.15,2013-01-26 14:50:00,
2013-01-26 10:00:00,44.0,33.4,30.20,NE,37,1.0,1.0,66,0.00,,,0.00,Wunderground v.1.15,2013-01-26 15:00:00,
2013-01-26 10:10:00,43.8,32.8,30.20,NNE,18,1.0,4.0,65,0.00,,,0.00,Wunderground v.1.15,2013-01-26 15:10:00,
2013-01-26 10:20:00,43.7,32.7,30.20,NNE,22,2.0,6.0,65,0.00,,,0.00,Wunderground v.1.15,2013-01-26 15:20:00,
2013-01-26 10:25:00,43.8,32.8,30.20,WNW,288,2.0,6.0,65,0.00,,,0.00,Wunderground v.1.15,2013-01-26 15:25:00,
2013-01-26 10:35:00,44.8,33.4,30.20,NNE,28,1.0,4.0,64,0.00,,,0.00,Wunderground v.1.15,2013-01-26 15:35:00,
2013-01-26 10:45:00,44.8,33.0,30.20,North,5,3.0,6.0,63,0.00,,,0.00,Wunderground v.1.15,2013-01-26 15:45:00,
2013-01-26 10:55:00,45.6,33.7,30.20,WNW,292,2.0,3.0,63,0.00,,,0.00,Wunderground v.1.15,2013-01-26 15:55:00,
2013-01-26 11:05:00,46.9,34.6,30.20,NNE,20,1.0,2.0,62,0.00,,,0.00,Wunderground v.1.15,2013-01-26 16:05:00,
2013-01-26 11:15:00,47.6,34.8,30.20,NNW,341,2.0,2.0,61,0.00,,,0.00,Wunderground v.1.15,2013-01-26 16:15:00,
2013-01-26 11:25:00,47.7,34.9,30.20,NW,307,4.0,4.0,61,0.00,,,0.00,Wunderground v.1.15,2013-01-26 16:25:00,
2013-01-26 11:35:00,49.1,35.4,30.20,NNW,331,1.0,2.0,59,0.00,,,0.00,Wunderground v.1.15,2013-01-26 16:35:00,
2013-01-26 11:45:00,49.0,34.9,30.20,NNE,29,2.0,2.0,58,0.00,,,0.00,Wunderground v.1.15,2013-01-26 16:45:00,
2013-01-26 11:55:00,49.4,35.2,30.20,NE,48,1.0,7.0,58,0.00,,,0.00,Wunderground v.1.15,2013-01-26 16:55:00,
2013-01-26 12:00:00,49.6,35.4,30.19,NE,55,2.0,2.0,58,0.00,,,0.00,Wunderground v.1.15,2013-01-26 17:00:00,
2013-01-26 12:10:00,49.2,35.0,30.19,NNE,31,1.0,1.0,58,0.00,,,0.00,Wunderground v.1.15,2013-01-26 17:10:00,
2013-01-26 12:20:00,49.9,35.7,30.19,NNE,15,1.0,2.0,58,0.00,,,0.00,Wunderground v.1.15,2013-01-26 17:20:00,
2013-01-26 12:30:00,50.0,35.4,30.18,East,89,4.0,4.0,57,0.00,,,0.00,Wunderground v.1.15,2013-01-26 17:30:00,
2013-01-26 12:40:00,50.8,35.7,30.18,NNE,13,2.0,4.0,56,0.00,,,0.00,Wunderground v.1.15,2013-01-26 17:40:00,
2013-01-26 12:50:00,51.1,35.9,30.18,NNE,12,1.0,1.0,56,0.00,,,0.00,Wunderground v.1.15,2013-01-26 17:50:00,
2013-01-26 13:00:00,51.3,35.7,30.17,ENE,70,4.0,4.0,55,0.00,,,0.00,Wunderground v.1.15,2013-01-26 18:00:00,
2013-01-26 13:10:00,51.5,36.3,30.17,NNE,33,2.0,4.0,56,0.00,,,0.00,Wunderground v.1.15,2013-01-26 18:10:00,
2013-01-26 13:15:00,51.9,37.1,30.17,NNE,16,2.0,4.0,57,0.00,,,0.00,Wunderground v.1.15,2013-01-26 18:15:00,
2013-01-26 13:25:00,53.3,37.1,30.16,North,360,1.0,2.0,54,0.00,,,0.00,Wunderground v.1.15,2013-01-26 18:25:00,
2013-01-26 13:35:00,53.6,36.4,30.16,NNE,26,2.0,5.0,52,0.00,,,0.00,Wunderground v.1.15,2013-01-26 18:35:00,
2013-01-26 13:45:00,54.1,37.3,30.16,ENE,63,1.0,2.0,53,0.00,,,0.00,Wunderground v.1.15,2013-01-26 18:45:00,
2013-01-26 13:50:00,54.8,37.0,30.16,NE,34,0.0,0.0,51,0.00,,,0.00,Wunderground v.1.15,2013-01-26 18:50:00,
2013-01-26 14:00:00,54.9,36.6,30.15,NE,52,0.0,0.0,50,0.00,,,0.00,Wunderground v.1.15,2013-01-26 19:00:00,
2013-01-26 14:10:00,55.0,38.2,30.16,NNE,28,0.0,0.0,53,0.00,,,0.00,Wunderground v.1.15,2013-01-26 19:10:00,
2013-01-26 14:20:00,54.6,36.8,30.16,NE,38,1.0,1.0,51,0.00,,,0.00,Wunderground v.1.15,2013-01-26 19:20:00,
2013-01-26 14:30:00,54.6,36.3,30.16,NE,44,0.0,7.0,50,0.00,,,0.00,Wunderground v.1.15,2013-01-26 19:30:00,
2013-01-26 14:40:00,54.0,40.4,30.17,ESE,105,1.0,1.0,60,0.00,,,0.00,Wunderground v.1.15,2013-01-26 19:40:00,
2013-01-26 14:50:00,52.0,41.8,30.17,ESE,109,0.0,0.0,68,0.00,,,0.00,Wunderground v.1.15,2013-01-26 19:50:00,
2013-01-26 15:00:00,51.8,41.9,30.17,ESE,109,0.0,0.0,69,0.00,,,0.00,Wunderground v.1.15,2013-01-26 20:00:00,
2013-01-26 15:05:00,51.5,41.7,30.17,East,87,0.0,0.0,69,0.00,,,0.00,Wunderground v.1.15,2013-01-26 20:05:00,
2013-01-26 15:15:00,50.5,41.1,30.18,East,94,0.0,0.0,70,0.00,,,0.00,Wunderground v.1.15,2013-01-26 20:15:00,
2013-01-26 15:25:00,49.9,41.2,30.18,ESE,119,0.0,0.0,72,0.00,,,0.00,Wunderground v.1.15,2013-01-26 20:25:00,
2013-01-26 15:30:00,50.1,41.4,30.18,SE,126,0.0,0.0,72,0.00,,,0.00,Wunderground v.1.15,2013-01-26 20:30:00,
2013-01-26 15:40:00,50.3,41.6,30.19,ENE,69,0.0,0.0,72,0.00,,,0.00,Wunderground v.1.15,2013-01-26 20:40:00,
2013-01-26 15:45:00,50.5,41.1,30.18,SE,124,0.0,3.0,70,0.00,,,0.00,Wunderground v.1.15,2013-01-26 20:45:00,
2013-01-26 15:55:00,51.3,41.5,30.19,East,85,0.0,1.0,69,0.00,,,0.00,Wunderground v.1.15,2013-01-26 20:55:00,
2013-01-26 16:05:00,51.3,41.8,30.19,ESE,106,0.0,0.0,70,0.00,,,0.00,Wunderground v.1.15,2013-01-26 21:05:00,
2013-01-26 16:10:00,51.2,41.7,30.19,NE,35,0.0,0.0,70,0.00,,,0.00,Wunderground v.1.15,2013-01-26 21:10:00,
2013-01-26 16:15:00,51.2,41.4,30.19,ESE,108,0.0,0.0,69,0.00,,,0.00,Wunderground v.1.15,2013-01-26 21:15:00,
2013-01-26 16:25:00,50.8,42.1,30.19,ESE,111,0.0,0.0,72,0.00,,,0.00,Wunderground v.1.15,2013-01-26 21:25:00,
2013-01-26 16:35:00,51.0,41.9,30.19,East,98,0.0,0.0,71,0.00,,,0.00,Wunderground v.1.15,2013-01-26 21:35:00,
2013-01-26 16:40:00,51.0,41.9,30.19,NE,46,0.0,0.0,71,0.00,,,0.00,Wunderground v.1.15,2013-01-26 21:40:00,
2013-01-26 16:50:00,51.8,41.2,30.21,ENE,69,0.0,0.0,67,0.00,,,0.00,Wunderground v.1.15,2013-01-26 21:50:00,
2013-01-26 16:55:00,52.0,37.2,30.21,NE,34,0.0,0.0,57,0.00,,,0.00,Wunderground v.1.15,2013-01-26 21:55:00,
2013-01-26 17:00:00,52.1,37.3,30.21,NE,53,0.0,0.0,57,0.00,,,0.00,Wunderground v.1.15,2013-01-26 22:00:00,
2013-01-26 17:10:00,51.7,37.4,30.21,NE,38,0.0,0.0,58,0.00,,,0.00,Wunderground v.1.15,2013-01-26 22:10:00,
2013-01-26 17:15:00,51.5,37.2,30.21,NE,34,0.0,0.0,58,0.00,,,0.00,Wunderground v.1.15,2013-01-26 22:15:00,
2013-01-26 17:25:00,51.1,36.4,30.22,NE,34,0.0,0.0,57,0.00,,,0.00,Wunderground v.1.15,2013-01-26 22:25:00,
2013-01-26 17:35:00,50.6,36.8,30.22,NE,43,0.0,0.0,59,0.00,,,0.00,Wunderground v.1.15,2013-01-26 22:35:00,
2013-01-26 17:45:00,49.9,36.6,30.22,NE,47,0.0,0.0,60,0.00,,,0.00,Wunderground v.1.15,2013-01-26 22:45:00,
2013-01-26 17:55:00,49.3,36.4,30.22,NE,38,0.0,0.0,61,0.00,,,0.00,Wunderground v.1.15,2013-01-26 22:55:00,
2013-01-26 18:05:00,48.8,36.4,30.23,NE,40,0.0,0.0,62,0.00,,,0.00,Wunderground v.1.15,2013-01-26 23:05:00,
2013-01-26 18:10:00,48.5,36.1,30.23,NE,40,0.0,0.0,62,0.00,,,0.00,Wunderground v.1.15,2013-01-26 23:10:00,
2013-01-26 18:20:00,47.8,35.8,30.24,NE,42,0.0,0.0,63,0.00,,,0.00,Wunderground v.1.15,2013-01-26 23:20:00,
2013-01-26 18:30:00,47.3,36.1,30.24,NE,46,0.0,0.0,65,0.00,,,0.00,Wunderground v.1.15,2013-01-26 23:30:00,
2013-01-26 18:40:00,46.8,35.6,30.24,NE,42,0.0,0.0,65,0.00,,,0.00,Wunderground v.1.15,2013-01-26 23:40:00,
2013-01-26 18:50:00,46.5,35.7,30.24,NE,40,0.0,0.0,66,0.00,,,0.00,Wunderground v.1.15,2013-01-26 23:50:00,
2013-01-26 19:00:00,46.2,35.5,30.25,NE,35,0.0,0.0,66,0.00,,,0.00,Wunderground v.1.15,2013-01-27 00:00:00,
2013-01-26 19:10:00,45.8,35.1,30.25,NNE,32,0.0,0.0,66,0.00,,,0.00,Wunderground v.1.15,2013-01-27 00:10:00,
2013-01-26 19:20:00,45.6,35.3,30.26,NE,43,0.0,0.0,67,0.00,,,0.00,Wunderground v.1.15,2013-01-27 00:20:00,
2013-01-26 19:30:00,45.4,34.7,30.26,NE,53,0.0,0.0,66,0.00,,,0.00,Wunderground v.1.15,2013-01-27 00:30:00,
2013-01-26 19:40:00,45.2,34.5,30.26,NE,56,0.0,0.0,66,0.00,,,0.00,Wunderground v.1.15,2013-01-27 00:40:00,
2013-01-26 19:45:00,45.1,34.4,30.26,NE,40,0.0,0.0,66,0.00,,,0.00,Wunderground v.1.15,2013-01-27 00:45:00,
2013-01-26 19:55:00,44.9,34.2,30.27,NE,46,0.0,0.0,66,0.00,,,0.00,Wunderground v.1.15,2013-01-27 00:55:00,
2013-01-26 20:00:00,44.7,34.0,30.27,NNE,32,0.0,0.0,66,0.00,,,0.00,Wunderground v.1.15,2013-01-27 01:00:00,
2013-01-26 20:10:00,44.3,33.7,30.28,NE,39,0.0,0.0,66,0.00,,,0.00,Wunderground v.1.15,2013-01-27 01:10:00,
2013-01-26 20:15:00,44.1,33.8,30.28,NE,44,0.0,0.0,67,0.00,,,0.00,Wunderground v.1.15,2013-01-27 01:15:00,
2013-01-26 20:25:00,43.6,33.7,30.28,NE,47,0.0,0.0,68,0.00,,,0.00,Wunderground v.1.15,2013-01-27 01:25:00,
2013-01-26 20:35:00,43.3,33.8,30.28,NE,49,0.0,0.0,69,0.00,,,0.00,Wunderground v.1.15,2013-01-27 01:35:00,
2013-01-26 20:45:00,43.1,34.0,30.28,NE,39,0.0,0.0,70,0.00,,,0.00,Wunderground v.1.15,2013-01-27 01:45:00,
2013-01-26 20:55:00,42.8,33.3,30.29,NE,47,0.0,0.0,69,0.00,,,0.00,Wunderground v.1.15,2013-01-27 01:55:00,
2013-01-26 21:05:00,42.6,33.9,30.29,NE,46,0.0,0.0,71,0.00,,,0.00,Wunderground v.1.15,2013-01-27 02:05:00,
2013-01-26 21:15:00,42.3,33.6,30.30,ENE,66,0.0,0.0,71,0.00,,,0.00,Wunderground v.1.15,2013-01-27 02:15:00,
2013-01-26 21:20:00,42.1,33.7,30.30,NE,43,0.0,0.0,72,0.00,,,0.00,Wunderground v.1.15,2013-01-27 02:20:00,
2013-01-26 21:30:00,41.9,33.5,30.30,NE,49,0.0,0.0,72,0.00,,,0.00,Wunderground v.1.15,2013-01-27 02:30:00,
2013-01-26 21:40:00,41.7,33.7,30.30,NE,48,0.0,0.0,73,0.00,,,0.00,Wunderground v.1.15,2013-01-27 02:40:00,
2013-01-26 21:50:00,41.5,33.8,30.31,NE,56,0.0,0.0,74,0.00,,,0.00,Wunderground v.1.15,2013-01-27 02:50:00,
2013-01-26 21:55:00,41.5,33.8,30.31,NE,51,0.0,0.0,74,0.00,,,0.00,Wunderground v.1.15,2013-01-27 02:55:00,
2013-01-26 22:05:00,41.3,34.0,30.31,ENE,65,0.0,0.0,75,0.00,,,0.00,Wunderground v.1.15,2013-01-27 03:05:00,
2013-01-26 22:15:00,41.0,33.7,30.31,NE,50,0.0,0.0,75,0.00,,,0.00,Wunderground v.1.15,2013-01-27 03:15:00,
2013-01-26 22:20:00,40.8,33.5,30.32,ENE,57,0.0,0.0,75,0.00,,,0.00,Wunderground v.1.15,2013-01-27 03:20:00,
2013-01-26 22:30:00,40.6,33.3,30.32,NE,51,0.0,0.0,75,0.00,,,0.00,Wunderground v.1.15,2013-01-27 03:30:00,
2013-01-26 22:40:00,40.4,33.4,30.33,ENE,60,0.0,0.0,76,0.00,,,0.00,Wunderground v.1.15,2013-01-27 03:40:00,
2013-01-26 22:50:00,40.1,33.1,30.33,NE,36,0.0,0.0,76,0.00,,,0.00,Wunderground v.1.15,2013-01-27 03:50:00,
2013-01-26 23:00:00,39.9,32.9,30.33,NE,52,0.0,0.0,76,0.00,,,0.00,Wunderground v.1.15,2013-01-27 04:00:00,
2013-01-26 23:10:00,39.7,32.8,30.33,NE,43,0.0,0.0,76,0.00,,,0.00,Wunderground v.1.15,2013-01-27 04:10:00,
2013-01-26 23:20:00,39.2,32.6,30.34,NE,37,0.0,0.0,77,0.00,,,0.00,Wunderground v.1.15,2013-01-27 04:20:00,
2013-01-26 23:30:00,38.9,32.6,30.33,NE,48,0.0,0.0,78,0.00,,,0.00,Wunderground v.1.15,2013-01-27 04:30:00,
2013-01-26 23:40:00,38.8,32.8,30.33,NE,44,0.0,0.0,79,0.00,,,0.00,Wunderground v.1.15,2013-01-27 04:40:00,
2013-01-26 23:50:00,38.6,32.6,30.33,NE,53,0.0,0.0,79,0.00,,,0.00,Wunderground v.1.15,2013-01-27 04:50:00,